Time;durP1;ratioP1;P1;durP2;ratioP2;P2;SDS_P1;SDS_P2;PMS_P1;PMS_P2;Temp;Humidity;BMP_temperature;BMP_pressure;BME280_temperature;BME280_humidity;BME280_pressure;Samples;Min_cycle;Max_cycle;Signal;HPM_P1;HPM_P2
2022/11/05 00:09:31;;;;;;;11.43;6.80;;;;;;;8.13;89.61;100510.59;5051473;28;20622;-82
2022/11/05 00:17:30;;;;;;;11.43;6.40;;;;;;;8.06;89.70;100525.13;5050725;28;20290;-82
2022/11/05 00:19:57;;;;;;;10.43;6.40;;;;;;;8.05;89.57;100536.72;5055486;28;20214;-82
2022/11/05 00:25:16;;;;;;;10.73;6.30;;;;;;;8.00;90.19;100534.28;5045050;28;20307;-82
2022/11/05 00:27:48;;;;;;;11.90;7.10;;;;;;;8.01;90.32;100541.31;5055117;28;20225;-80
2022/11/05 00:30:18;;;;;;;10.90;6.57;;;;;;;7.98;89.78;100545.91;5055702;28;20649;-80
2022/11/05 00:32:46;;;;;;;14.37;7.10;;;;;;;7.96;90.64;100548.66;5051465;28;20202;-80
2022/11/05 00:35:12;;;;;;;11.27;6.63;;;;;;;7.95;90.22;100540.78;5052783;28;20228;-81
2022/11/05 00:37:39;;;;;;;10.33;6.60;;;;;;;7.94;90.97;100553.19;5048252;28;20225;-81
2022/11/05 00:40:06;;;;;;;12.83;6.57;;;;;;;7.93;90.83;100547.97;5049084;28;20208;-80
2022/11/05 00:45:18;;;;;;;11.67;6.67;;;;;;;7.90;91.05;100558.72;5051292;28;20207;-80
2022/11/05 00:50:30;;;;;;;11.47;6.80;;;;;;;7.88;91.44;100558.81;5054692;28;20293;-81
2022/11/05 00:52:59;;;;;;;10.07;6.80;;;;;;;7.88;91.52;100568.59;5054255;28;20213;-81
2022/11/05 00:55:28;;;;;;;11.53;6.37;;;;;;;7.86;92.27;100563.38;5048919;28;20225;-80
2022/11/05 00:57:55;;;;;;;12.47;6.73;;;;;;;7.85;92.59;100560.78;5052400;28;20232;-80
2022/11/05 01:00:25;;;;;;;10.47;6.43;;;;;;;7.84;92.22;100570.53;5054039;28;20230;-80
2022/11/05 01:02:51;;;;;;;12.47;6.73;;;;;;;7.84;92.64;100572.34;5056456;28;20225;-80
2022/11/05 01:05:18;;;;;;;11.33;6.37;;;;;;;7.84;92.85;100569.69;5056382;28;20202;-81
2022/11/05 01:07:45;;;;;;;12.07;6.43;;;;;;;7.82;92.40;100575.06;5053353;28;20232;-81
2022/11/05 01:10:11;;;;;;;9.40;6.90;;;;;;;7.81;92.66;100581.31;5062121;28;20207;-80
2022/11/05 01:12:37;;;;;;;11.40;6.00;;;;;;;7.80;92.55;100579.59;5053946;28;20202;-80
2022/11/05 01:15:05;;;;;;;9.97;6.90;;;;;;;7.79;93.04;100579.66;5057405;28;20237;-80
2022/11/05 01:17:33;;;;;;;10.70;5.93;;;;;;;7.79;92.61;100582.31;5057449;28;20294;-80
2022/11/05 01:19:59;;;;;;;10.80;6.57;;;;;;;7.78;93.50;100586.75;5055459;28;20214;-81
2022/11/05 01:22:26;;;;;;;13.83;6.93;;;;;;;7.77;93.03;100592.13;5052908;28;20202;-80
2022/11/05 01:24:52;;;;;;;18.73;7.20;;;;;;;7.76;93.55;100577.16;5055769;28;20205;-81
2022/11/05 01:27:19;;;;;;;12.83;6.67;;;;;;;7.74;92.75;100587.84;5054362;28;20214;-81
2022/11/05 01:29:45;;;;;;;12.33;7.10;;;;;;;7.73;93.53;100591.44;5053056;28;20297;-80
2022/11/05 01:32:12;;;;;;;14.40;7.57;;;;;;;7.72;93.41;100586.22;5055781;28;20198;-80
2022/11/05 01:34:39;;;;;;;11.03;7.00;;;;;;;7.70;93.46;100585.47;5051953;28;20226;-80
2022/11/05 01:37:06;;;;;;;15.37;7.07;;;;;;;7.70;93.43;100582.81;5052944;28;20229;-80
2022/11/05 01:39:33;;;;;;;16.60;7.23;;;;;;;7.69;93.39;100581.97;5058812;28;20644;-80
2022/11/05 01:41:59;;;;;;;15.27;7.80;;;;;;;7.67;93.75;100578.53;5061439;28;20664;-80
2022/11/05 01:44:58;;;;;;;13.83;7.83;;;;;;;7.66;93.29;100582.13;5059205;28;20208;-80
2022/11/05 01:47:30;;;;;;;12.90;7.10;;;;;;;7.63;93.15;100588.44;5055161;28;20616;-80
2022/11/05 01:50:02;;;;;;;12.93;7.30;;;;;;;7.60;93.66;100593.88;5051765;28;20206;-80
2022/11/05 01:52:31;;;;;;;12.37;8.23;;;;;;;7.58;93.30;100581.63;5055813;28;20202;-80
2022/11/05 01:54:58;;;;;;;15.03;8.37;;;;;;;7.57;93.76;100585.22;5058846;28;20229;-80
2022/11/05 01:57:26;;;;;;;15.57;8.27;;;;;;;7.55;93.95;100589.75;5062511;28;20635;-80
2022/11/05 01:59:56;;;;;;;16.07;8.87;;;;;;;7.52;93.63;100590.78;5057856;28;20664;-80
2022/11/05 02:02:24;;;;;;;15.07;7.63;;;;;;;7.51;94.05;100594.38;5060542;28;20245;-80
2022/11/05 02:04:54;;;;;;;13.13;8.77;;;;;;;7.49;93.92;100588.28;5059864;28;20212;-80
2022/11/05 02:07:25;;;;;;;14.73;8.30;;;;;;;7.47;93.99;100592.81;5058044;28;20227;-81
2022/11/05 02:09:58;;;;;;;12.23;7.50;;;;;;;7.47;94.27;100602.56;5060637;28;20212;-82
2022/11/05 02:12:27;;;;;;;17.47;7.57;;;;;;;7.45;94.32;100602.63;5054594;28;20205;-82
2022/11/05 02:14:54;;;;;;;14.63;8.17;;;;;;;7.44;94.11;100597.41;5058509;28;20610;-81
2022/11/05 02:17:30;;;;;;;12.07;7.70;;;;;;;7.43;94.38;100601.84;5055599;28;20719;-81
2022/11/05 02:20:16;;;;;;;13.50;7.50;;;;;;;7.41;95.23;100598.41;5057739;28;20205;-81
2022/11/05 02:23:04;;;;;;;12.70;7.87;;;;;;;7.39;95.32;100602.94;5059277;28;20220;-81
2022/11/05 02:26:03;;;;;;;15.67;8.23;;;;;;;7.37;95.24;100599.50;5058723;28;20211;-81
2022/11/05 02:28:52;;;;;;;14.50;8.77;;;;;;;7.36;95.02;100604.88;5051033;28;20232;-81
2022/11/05 02:31:27;;;;;;;18.13;7.47;;;;;;;7.36;94.83;100602.22;5053233;28;20201;-81
2022/11/05 02:34:03;;;;;;;12.97;7.43;;;;;;;7.35;94.73;100600.50;5053694;28;20774;-81
2022/11/05 02:36:42;;;;;;;14.50;8.07;;;;;;;7.34;95.55;100607.63;5056324;28;20213;-81
2022/11/05 02:39:21;;;;;;;13.30;7.80;;;;;;;7.32;95.07;100609.50;5054489;28;20207;-81
2022/11/05 02:42:00;;;;;;;17.00;8.63;;;;;;;7.32;95.58;100604.19;5051180;28;20205;-82
2022/11/05 02:44:34;;;;;;;13.83;8.47;;;;;;;7.30;95.30;100614.88;5054757;28;20672;-81
2022/11/05 02:47:08;;;;;;;15.40;8.17;;;;;;;7.30;95.26;100606.06;5052470;28;20226;-81
2022/11/05 02:49:47;;;;;;;13.20;8.10;;;;;;;7.30;95.33;100606.06;5059800;28;20204;-81
2022/11/05 02:52:21;;;;;;;17.07;8.03;;;;;;;7.28;95.45;100603.47;5055320;28;20208;-81
2022/11/05 02:54:53;;;;;;;16.60;8.53;;;;;;;7.26;95.47;100605.34;5054152;28;20229;-81
2022/11/05 02:57:22;;;;;;;16.40;8.97;;;;;;;7.26;95.56;100605.34;5050363;28;20232;-81
2022/11/05 02:59:48;;;;;;;13.43;8.50;;;;;;;7.25;95.57;100608.06;5055479;28;20205;-81
2022/11/05 03:02:16;;;;;;;16.23;7.43;;;;;;;7.24;95.95;100606.34;5056721;28;20205;-81
2022/11/05 03:04:42;;;;;;;12.40;7.80;;;;;;;7.23;95.77;100602.00;5051275;28;20204;-81
2022/11/05 03:07:25;;;;;;;15.57;7.77;;;;;;;7.22;96.12;100606.44;5053781;28;20225;-81
2022/11/05 03:10:15;;;;;;;15.20;8.27;;;;;;;7.22;95.77;100602.94;5050639;28;20227;-81
2022/11/05 03:12:49;;;;;;;12.80;7.53;;;;;;;7.22;95.97;100610.88;5050645;28;20240;-81
2022/11/05 03:15:26;;;;;;;16.27;8.50;;;;;;;7.21;96.37;100606.50;5056228;28;20216;-82
2022/11/05 03:18:02;;;;;;;16.60;8.10;;;;;;;7.21;95.87;100614.44;5047485;28;20240;-81
2022/11/05 03:20:35;;;;;;;13.93;7.73;;;;;;;7.20;96.10;100616.25;5051340;28;20213;-81
2022/11/05 03:23:12;;;;;;;19.67;7.80;;;;;;;7.18;95.71;100615.47;5048698;28;20202;-81
2022/11/05 03:25:43;;;;;;;16.50;7.43;;;;;;;7.19;96.22;100616.31;5049018;28;20220;-81
2022/11/05 03:28:12;;;;;;;13.13;7.80;;;;;;;7.18;96.65;100625.19;5056145;28;20226;-81
2022/11/05 03:30:40;;;;;;;13.37;7.57;;;;;;;7.16;96.29;100620.00;5051797;28;20762;-81
2022/11/05 03:33:13;;;;;;;14.37;7.83;;;;;;;7.15;96.38;100625.38;5054735;28;20208;-81
2022/11/05 03:35:43;;;;;;;14.30;8.37;;;;;;;7.15;96.04;100628.03;5048854;28;20217;-81
2022/11/05 03:38:13;;;;;;;16.50;7.83;;;;;;;7.13;96.28;100625.44;5055534;28;20229;-81
2022/11/05 03:40:42;;;;;;;14.60;8.10;;;;;;;7.13;96.24;100629.88;5054146;28;20667;-81
2022/11/05 03:43:09;;;;;;;12.57;7.70;;;;;;;7.11;96.19;100634.41;5063791;28;20208;-81
2022/11/05 03:45:40;;;;;;;16.73;8.40;;;;;;;7.10;96.10;100638.84;5058230;28;20225;-81
2022/11/05 03:48:11;;;;;;;13.63;7.37;;;;;;;7.10;96.36;100635.31;5050310;28;20236;-80
2022/11/05 03:50:40;;;;;;;12.40;7.90;;;;;;;7.09;96.41;100633.59;5056090;28;20569;-81
2022/11/05 03:53:14;;;;;;;13.20;7.57;;;;;;;7.08;96.34;100634.53;5052427;28;20205;-80
2022/11/05 03:55:48;;;;;;;13.60;7.63;;;;;;;7.07;96.67;100638.97;5062040;28;20572;-81
2022/11/05 03:58:15;;;;;;;15.23;8.27;;;;;;;7.07;96.66;100643.41;5055673;28;20634;-81
2022/11/05 04:00:42;;;;;;;14.33;8.37;;;;;;;7.06;96.52;100645.22;5056090;28;20205;-81
2022/11/05 04:03:10;;;;;;;14.93;7.57;;;;;;;7.04;96.77;100647.06;5050627;28;20210;-81
2022/11/05 04:05:36;;;;;;;14.17;7.57;;;;;;;7.04;97.14;100644.41;5049294;28;20201;-81
2022/11/05 04:13:32;;;;;;;16.60;7.67;;;;;;;7.02;96.97;100664.81;5059048;28;20216;-80
2022/11/05 04:18:43;;;;;;;16.53;7.70;;;;;;;7.02;96.95;100671.91;5049948;28;20331;-80
2022/11/05 04:24:10;;;;;;;13.70;6.70;;;;;;;7.01;97.03;100678.13;5049664;28;20283;-80
2022/11/05 04:26:37;;;;;;;11.23;7.07;;;;;;;6.99;96.55;100672.06;5049697;28;20209;-81
2022/11/05 04:31:49;;;;;;;16.17;6.73;;;;;;;6.96;96.53;100681.03;5055515;28;20281;-80
2022/11/05 04:34:17;;;;;;;11.97;6.63;;;;;;;6.95;96.68;100679.31;5052915;28;20217;-81
2022/11/05 04:36:44;;;;;;;13.13;7.27;;;;;;;6.94;96.56;100689.03;5058181;28;20221;-80
2022/11/05 04:39:11;;;;;;;16.63;7.73;;;;;;;6.93;96.18;100681.16;5057075;28;20209;-81
2022/11/05 04:41:37;;;;;;;13.17;7.33;;;;;;;6.90;96.91;100687.47;5045526;28;20667;-82
2022/11/05 04:44:04;;;;;;;15.43;8.10;;;;;;;6.89;96.59;100690.19;5043090;28;20660;-80
2022/11/05 04:46:30;;;;;;;11.67;7.07;;;;;;;6.86;96.62;100685.88;5049725;28;20202;-80
2022/11/05 04:48:57;;;;;;;14.03;7.17;;;;;;;6.85;96.57;100694.75;5049534;28;20225;-80
2022/11/05 04:51:26;;;;;;;17.17;7.30;;;;;;;6.84;96.69;100690.38;5056123;28;20201;-81
2022/11/05 04:53:52;;;;;;;13.73;7.77;;;;;;;6.82;97.25;100688.72;5053080;28;20197;-80
2022/11/05 04:56:20;;;;;;;16.20;7.63;;;;;;;6.79;96.57;100692.41;5056730;28;20621;-81
2022/11/05 04:58:47;;;;;;;19.87;8.13;;;;;;;6.78;97.16;100698.63;5065994;28;20229;-80
2022/11/05 05:01:15;;;;;;;15.17;8.00;;;;;;;6.78;97.00;100692.47;5057460;28;20212;-81
2022/11/05 05:03:41;;;;;;;17.10;7.93;;;;;;;6.77;96.89;100706.66;5053359;28;20201;-80
2022/11/05 05:06:08;;;;;;;11.67;7.73;;;;;;;6.75;96.54;100704.06;5054224;28;20202;-80
2022/11/05 05:08:36;;;;;;;13.43;8.30;;;;;;;6.74;96.68;100709.44;5056746;28;20221;-80
2022/11/05 05:11:03;;;;;;;13.37;8.40;;;;;;;6.72;96.89;100703.34;5055442;28;20232;-80
2022/11/05 05:13:30;;;;;;;14.37;8.07;;;;;;;6.70;97.01;100711.34;5056096;28;20212;-80
2022/11/05 05:15:56;;;;;;;16.90;8.20;;;;;;;6.71;97.08;100717.50;5053574;28;20232;-80
2022/11/05 05:18:24;;;;;;;16.97;8.03;;;;;;;6.68;96.79;100720.28;5058993;28;20229;-80
2022/11/05 05:23:36;;;;;;;15.33;8.50;;;;;;;6.63;97.28;100715.19;5054482;28;20208;-81
2022/11/05 05:26:02;;;;;;;15.17;8.03;;;;;;;6.61;96.74;100719.72;5056559;28;20565;-80
2022/11/05 05:28:29;;;;;;;16.57;8.37;;;;;;;6.61;96.83;100717.09;5053377;28;20593;-80
2022/11/05 05:30:59;;;;;;;18.37;8.93;;;;;;;6.58;97.06;100728.66;5054971;28;20240;-80
2022/11/05 05:33:25;;;;;;;15.50;9.53;;;;;;;6.57;97.29;100729.59;5058488;28;20266;-80
2022/11/05 05:35:52;;;;;;;12.43;8.03;;;;;;;6.57;97.15;100736.66;5055068;28;20232;-80
2022/11/05 05:38:18;;;;;;;19.70;8.23;;;;;;;6.54;97.10;100740.31;5056047;28;20228;-80
2022/11/05 05:40:46;;;;;;;14.33;8.27;;;;;;;6.54;97.14;100742.09;5057812;28;20197;-81
2022/11/05 05:43:13;;;;;;;20.43;8.53;;;;;;;6.53;97.14;100749.19;5056481;28;20210;-80
2022/11/05 05:45:39;;;;;;;16.40;8.13;;;;;;;6.51;97.26;100744.88;5056771;28;20228;-80
2022/11/05 05:48:06;;;;;;;15.00;8.77;;;;;;;6.50;97.26;100741.38;5053553;28;20559;-80
2022/11/05 05:50:32;;;;;;;21.07;9.00;;;;;;;6.48;97.50;100747.66;5057954;28;20213;-80
2022/11/05 05:52:59;;;;;;;13.83;7.77;;;;;;;6.49;97.97;100755.53;5058367;28;20671;-80
2022/11/05 05:55:25;;;;;;;14.50;7.80;;;;;;;6.48;97.95;100761.75;5056801;28;21100;-81
2022/11/05 05:57:53;;;;;;;19.90;8.57;;;;;;;6.50;98.19;100759.03;5054663;28;20221;-81
2022/11/05 06:00:20;;;;;;;16.53;8.33;;;;;;;6.48;97.79;100760.88;5049313;28;20220;-81
2022/11/05 06:02:46;;;;;;;19.43;8.03;;;;;;;6.47;98.22;100753.88;5050136;28;20213;-80
2022/11/05 06:05:13;;;;;;;15.97;8.67;;;;;;;6.47;97.95;100756.50;5054855;28;20201;-80
2022/11/05 06:07:39;;;;;;;12.83;8.03;;;;;;;6.46;98.19;100754.78;5054506;28;20611;-80
2022/11/05 06:10:06;;;;;;;18.20;9.47;;;;;;;6.45;98.03;100755.75;5049975;28;20586;-80
2022/11/05 06:12:33;;;;;;;15.80;9.27;;;;;;;6.43;98.30;100749.66;5052023;28;20209;-80
2022/11/05 06:15:01;;;;;;;17.60;9.20;;;;;;;6.42;98.43;100755.88;5054192;28;20212;-81
2022/11/05 06:17:27;;;;;;;19.27;10.03;;;;;;;6.42;98.69;100763.81;5052053;28;20279;-81
2022/11/05 06:19:54;;;;;;;16.20;9.77;;;;;;;6.40;98.67;100760.38;5054142;28;20680;-81
2022/11/05 06:22:20;;;;;;;21.57;10.20;;;;;;;6.39;99.00;100758.66;5054816;28;20201;-81
2022/11/05 06:24:47;;;;;;;21.43;10.93;;;;;;;6.38;98.69;100767.53;5056977;28;20593;-80
2022/11/05 06:27:13;;;;;;;18.20;10.07;;;;;;;6.37;98.83;100765.81;5051881;28;20217;-80
2022/11/05 06:29:40;;;;;;;19.67;9.77;;;;;;;6.37;99.05;100776.38;5052556;28;20201;-80
2022/11/05 06:32:08;;;;;;;18.43;10.83;;;;;;;6.36;99.11;100782.59;5061104;28;20205;-80
2022/11/05 06:34:35;;;;;;;22.63;10.67;;;;;;;6.36;99.19;100788.75;5049479;28;20202;-80
2022/11/05 06:37:02;;;;;;;22.03;10.93;;;;;;;6.36;99.07;100794.03;5056208;28;20240;-81
2022/11/05 06:39:28;;;;;;;18.90;11.20;;;;;;;6.35;99.22;100794.97;5051109;28;20644;-81
2022/11/05 06:41:55;;;;;;;19.70;11.03;;;;;;;6.35;99.11;100784.38;5055203;28;20573;-80
2022/11/05 06:44:21;;;;;;;23.10;11.63;;;;;;;6.36;99.77;100803.75;5056379;28;20201;-80
2022/11/05 06:46:48;;;;;;;21.57;11.07;;;;;;;6.34;99.74;100803.81;5058685;28;20225;-80
2022/11/05 06:49:15;;;;;;;26.43;12.30;;;;;;;6.34;99.33;100798.53;5053671;28;20198;-80
2022/11/05 06:51:42;;;;;;;21.20;12.37;;;;;;;6.35;99.58;100804.69;5054370;28;20259;-80
2022/11/05 06:54:08;;;;;;;18.00;11.77;;;;;;;6.34;99.72;100808.25;5058771;28;20227;-80
2022/11/05 06:56:35;;;;;;;26.93;11.63;;;;;;;6.33;99.64;100810.03;5052710;28;20221;-80
2022/11/05 06:59:01;;;;;;;22.03;12.20;;;;;;;6.33;99.88;100806.53;5054840;28;20225;-80
2022/11/05 07:01:28;;;;;;;19.37;12.00;;;;;;;6.32;99.87;100818.03;5054341;28;20202;-80
2022/11/05 07:03:54;;;;;;;17.67;10.50;;;;;;;6.33;99.60;100817.13;5052087;28;20210;-81
2022/11/05 07:06:22;;;;;;;24.20;10.87;;;;;;;6.33;100.00;100820.63;5055314;28;20266;-81
2022/11/05 07:08:49;;;;;;;22.00;10.47;;;;;;;6.34;100.00;100832.06;5055693;28;20233;-82
2022/11/05 07:11:15;;;;;;;22.17;11.17;;;;;;;6.36;100.00;100832.84;5055140;28;20210;-81
2022/11/05 07:13:42;;;;;;;17.40;10.37;;;;;;;6.37;100.00;100838.09;5055855;28;20209;-81
2022/11/05 07:16:08;;;;;;;21.93;10.90;;;;;;;6.39;100.00;100832.72;5053380;28;20229;-81
2022/11/05 07:18:35;;;;;;;20.60;11.97;;;;;;;6.40;100.00;100830.03;5054746;28;20571;-81
2022/11/05 07:21:02;;;;;;;22.13;12.10;;;;;;;6.43;100.00;100829.03;5052487;28;20234;-81
2022/11/05 07:23:29;;;;;;;19.00;11.90;;;;;;;6.45;100.00;100835.94;5057262;28;20285;-81
2022/11/05 07:25:56;;;;;;;22.13;12.07;;;;;;;6.49;100.00;100839.31;5052054;28;20213;-81
2022/11/05 07:28:22;;;;;;;23.13;11.43;;;;;;;6.49;100.00;100836.69;5060359;28;20225;-81
2022/11/05 07:30:49;;;;;;;22.60;12.33;;;;;;;6.51;100.00;100851.56;5055174;28;20599;-81
2022/11/05 07:33:15;;;;;;;22.87;11.60;;;;;;;6.50;100.00;100844.56;5057053;28;20660;-80
2022/11/05 07:35:42;;;;;;;22.47;12.40;;;;;;;6.51;100.00;100859.50;5054578;28;20201;-81
2022/11/05 07:38:08;;;;;;;21.77;12.10;;;;;;;6.56;100.00;100846.94;5057680;28;20221;-81
2022/11/05 07:40:36;;;;;;;20.40;13.07;;;;;;;6.61;100.00;100852.91;5057193;28;20201;-80
2022/11/05 07:43:02;;;;;;;19.83;12.33;;;;;;;6.63;100.00;100858.09;5053984;28;20201;-81
2022/11/05 07:45:30;;;;;;;19.10;11.43;;;;;;;6.65;100.00;100850.97;5061148;28;20215;-81
2022/11/05 07:47:59;;;;;;;21.80;11.00;;;;;;;6.70;100.00;100862.22;5055858;28;20685;-80
2022/11/05 07:50:27;;;;;;;18.93;10.40;;;;;;;6.75;100.00;100862.88;5055345;28;20283;-81
2022/11/05 07:52:58;;;;;;;19.97;10.80;;;;;;;6.77;100.00;100855.75;5059289;28;20259;-81
2022/11/05 07:55:25;;;;;;;21.63;11.37;;;;;;;6.80;100.00;100860.91;5061753;28;20714;-81
2022/11/05 07:57:53;;;;;;;19.47;11.10;;;;;;;6.86;100.00;100868.53;5054103;28;20260;-81
2022/11/05 08:00:21;;;;;;;19.13;9.90;;;;;;;6.93;100.00;100866.50;5051496;28;20201;-80
2022/11/05 08:02:56;;;;;;;20.10;10.43;;;;;;;6.99;100.00;100868.84;5050306;28;20202;-80
2022/11/05 08:05:23;;;;;;;18.57;10.13;;;;;;;7.05;100.00;100873.03;5053726;28;20224;-80
2022/11/05 08:07:49;;;;;;;21.03;10.47;;;;;;;7.12;100.00;100877.97;5051156;28;20236;-80
2022/11/05 08:10:16;;;;;;;18.97;10.43;;;;;;;7.17;100.00;100881.25;5051510;28;20205;-79
2022/11/05 08:12:42;;;;;;;16.90;11.03;;;;;;;7.23;100.00;100885.44;5053016;28;20202;-82
2022/11/05 08:15:10;;;;;;;22.67;10.07;;;;;;;7.30;100.00;100892.19;5049055;28;20590;-82
2022/11/05 08:17:37;;;;;;;17.53;10.50;;;;;;;7.37;100.00;100898.88;5052791;28;20932;-81
2022/11/05 08:20:04;;;;;;;15.83;10.73;;;;;;;7.41;100.00;100900.47;5053160;28;20212;-81
2022/11/05 08:22:31;;;;;;;18.17;10.33;;;;;;;7.44;100.00;100903.00;5054525;28;20581;-81
2022/11/05 08:24:57;;;;;;;20.87;10.23;;;;;;;7.51;100.00;100907.09;5052620;28;20541;-81
2022/11/05 08:27:24;;;;;;;17.90;9.73;;;;;;;7.58;100.00;100911.16;5052967;28;20248;-81
2022/11/05 08:29:50;;;;;;;18.53;9.63;;;;;;;7.64;100.00;100900.28;5060250;28;20214;-81
2022/11/05 08:32:18;;;;;;;17.00;9.13;;;;;;;7.70;100.00;100912.38;5056685;28;20208;-81
2022/11/05 08:34:44;;;;;;;15.30;8.87;;;;;;;7.75;99.87;100913.00;5059102;28;20196;-81
2022/11/05 08:37:11;;;;;;;15.93;9.40;;;;;;;7.81;98.91;100903.91;5054263;28;20251;-81
2022/11/05 08:39:37;;;;;;;22.07;11.07;;;;;;;7.87;98.99;100904.50;5049465;28;20232;-81
2022/11/05 08:42:04;;;;;;;15.63;9.47;;;;;;;7.96;98.84;100898.72;5052151;28;20210;-82
2022/11/05 08:44:30;;;;;;;12.90;9.07;;;;;;;8.08;98.88;100901.69;5058398;28;20236;-82
2022/11/05 08:46:57;;;;;;;15.57;9.73;;;;;;;8.15;97.87;100911.94;5051746;28;20205;-81
2022/11/05 08:49:25;;;;;;;17.13;9.43;;;;;;;8.23;98.16;100907.13;5055394;28;20217;-82
2022/11/05 08:51:51;;;;;;;15.07;9.57;;;;;;;8.31;97.90;100917.34;5056251;28;20208;-82
2022/11/05 08:54:17;;;;;;;16.00;9.87;;;;;;;8.40;97.05;100924.03;5056270;28;20201;-81
2022/11/05 08:56:44;;;;;;;19.17;10.37;;;;;;;8.46;96.20;100921.91;5057722;28;20229;-81
2022/11/05 08:59:11;;;;;;;16.63;9.27;;;;;;;8.54;96.26;100922.41;5059533;28;20225;-82
2022/11/05 09:01:37;;;;;;;16.80;8.53;;;;;;;8.66;95.69;100926.22;5056153;28;20202;-81
2022/11/05 09:04:04;;;;;;;16.17;9.67;;;;;;;8.72;95.16;100930.38;5052699;28;20206;-82
2022/11/05 09:06:32;;;;;;;16.37;8.77;;;;;;;8.76;94.62;100942.56;5050188;28;20743;-81
2022/11/05 09:08:59;;;;;;;16.27;9.70;;;;;;;8.79;93.67;100945.03;5057656;28;20231;-81
2022/11/05 09:11:26;;;;;;;14.63;7.07;;;;;;;8.87;93.09;100938.41;5049761;28;20205;-81
2022/11/05 09:13:52;;;;;;;16.10;9.30;;;;;;;8.90;92.07;100948.03;5049864;28;20198;-82
2022/11/05 09:16:21;;;;;;;17.23;9.20;;;;;;;8.94;92.94;100947.78;5053263;28;20209;-82
2022/11/05 09:18:49;;;;;;;15.20;9.00;;;;;;;9.03;92.26;100952.63;5051262;28;20623;-82
2022/11/05 09:21:16;;;;;;;18.03;9.23;;;;;;;9.09;91.99;100950.59;5054779;28;20282;-81
2022/11/05 09:23:44;;;;;;;16.87;9.20;;;;;;;9.16;92.22;100944.84;5048747;28;20197;-81
2022/11/05 09:26:11;;;;;;;15.50;9.00;;;;;;;9.25;91.98;100956.81;5049327;28;20220;-81
2022/11/05 09:28:38;;;;;;;16.07;8.60;;;;;;;9.33;91.27;100959.91;5051566;28;20576;-82
2022/11/05 09:31:07;;;;;;;12.03;8.10;;;;;;;9.38;90.26;100963.19;5048707;28;20197;-81
2022/11/05 09:33:34;;;;;;;15.57;8.37;;;;;;;9.42;90.10;100969.19;5047325;28;20233;-81
2022/11/05 09:36:01;;;;;;;12.43;7.43;;;;;;;9.46;89.59;100970.75;5047503;28;20202;-82
2022/11/05 09:38:29;;;;;;;11.83;8.10;;;;;;;9.46;88.93;100976.94;5054222;28;20245;-82
2022/11/05 09:41:00;;;;;;;13.93;8.50;;;;;;;9.51;88.47;100979.31;5053282;28;20209;-81
2022/11/05 09:43:32;;;;;;;13.97;8.50;;;;;;;9.51;87.83;100974.88;5052741;28;20221;-82
2022/11/05 09:46:04;;;;;;;12.70;8.00;;;;;;;9.52;88.37;100976.59;5059656;28;20698;-82
2022/11/05 09:48:32;;;;;;;13.80;7.97;;;;;;;9.56;88.31;100978.16;5058874;28;20708;-81
2022/11/05 09:50:59;;;;;;;16.27;9.00;;;;;;;9.59;88.02;100975.31;5060120;28;20209;-82
2022/11/05 09:53:26;;;;;;;14.13;7.50;;;;;;;9.57;87.67;100968.38;5047366;28;20210;-82
2022/11/05 09:55:54;;;;;;;13.07;7.53;;;;;;;9.59;87.09;100972.66;5053480;28;20699;-81
2022/11/05 09:58:31;;;;;;;10.40;7.27;;;;;;;9.59;86.68;100972.66;5052292;28;20239;-82
2022/11/05 10:00:58;;;;;;;10.30;6.37;;;;;;;9.60;86.91;100971.72;5046240;28;20208;-81
2022/11/05 10:03:28;;;;;;;13.20;6.90;;;;;;;9.60;86.71;100969.06;5050481;28;20197;-81
2022/11/05 10:06:00;;;;;;;12.67;6.70;;;;;;;9.59;86.03;100974.47;5046931;28;20802;-81
2022/11/05 10:08:31;;;;;;;14.27;7.60;;;;;;;9.55;85.71;100976.44;5042217;28;20222;-82
2022/11/05 10:11:01;;;;;;;14.67;7.83;;;;;;;9.59;85.83;100972.66;5050592;28;20202;-82
2022/11/05 10:13:35;;;;;;;12.03;7.20;;;;;;;9.68;85.80;100984.59;5053229;28;20224;-81
2022/11/05 10:16:07;;;;;;;13.13;7.93;;;;;;;9.73;85.80;100978.09;5056551;28;20594;-82
2022/11/05 10:18:36;;;;;;;10.83;6.93;;;;;;;9.76;84.87;100977.06;5058490;28;20221;-82
2022/11/05 10:21:03;;;;;;;14.60;7.53;;;;;;;9.82;84.49;100978.53;5054546;28;20210;-81
2022/11/05 10:23:30;;;;;;;11.97;7.30;;;;;;;9.82;84.30;100978.53;5052812;28;20219;-81
2022/11/05 10:26:01;;;;;;;11.73;6.70;;;;;;;9.83;85.00;100973.13;5056282;28;20216;-81
2022/11/05 10:28:32;;;;;;;12.53;6.93;;;;;;;9.94;84.35;100988.50;5049679;28;20224;-81
2022/11/05 10:31:00;;;;;;;11.47;6.87;;;;;;;9.95;84.22;100991.06;5055118;28;20197;-82
2022/11/05 10:33:33;;;;;;;17.07;7.50;;;;;;;9.98;83.58;100984.72;5050108;28;20205;-81
2022/11/05 10:36:04;;;;;;;11.83;7.23;;;;;;;9.96;83.69;100991.94;5051252;28;20288;-82
2022/11/05 10:38:31;;;;;;;13.87;6.90;;;;;;;9.95;82.98;100984.91;5044653;28;20240;-81
2022/11/05 10:41:19;;;;;;;11.47;6.83;;;;;;;10.01;83.38;101000.53;5051217;28;20212;-81
2022/11/05 10:43:50;;;;;;;12.77;7.03;;;;;;;10.06;83.28;100995.78;5053517;28;20200;-83
2022/11/05 10:46:28;;;;;;;10.80;7.00;;;;;;;10.09;82.66;100993.81;5056045;28;22063;-84
2022/11/05 10:49:16;;;;;;;10.87;7.13;;;;;;;10.11;82.77;100999.06;5049652;28;20228;-83
2022/11/05 10:51:43;;;;;;;12.50;7.67;;;;;;;10.12;82.25;101002.59;5053350;28;20250;-81
2022/11/05 10:54:16;;;;;;;13.37;7.20;;;;;;;10.10;82.16;101000.00;5051612;28;20598;-83
2022/11/05 10:56:43;;;;;;;12.60;7.57;;;;;;;10.10;81.72;100994.69;5049156;28;20199;-82
2022/11/05 10:59:22;;;;;;;14.83;6.87;;;;;;;10.10;81.59;100995.53;5052428;28;20206;-80
2022/11/05 11:02:03;;;;;;;12.37;6.77;;;;;;;10.11;81.06;101001.72;5054385;28;20678;-81
2022/11/05 11:04:30;;;;;;;13.10;7.53;;;;;;;10.11;80.72;100996.41;5056501;28;20670;-83
2022/11/05 11:06:59;;;;;;;10.17;7.40;;;;;;;10.13;80.50;100994.50;5054090;28;20201;-81
2022/11/05 11:09:30;;;;;;;11.70;8.10;;;;;;;10.09;80.07;100985.84;5055933;28;20844;-82
2022/11/05 11:12:02;;;;;;;10.40;8.00;;;;;;;10.12;80.06;100983.94;5054393;28;20198;-82
2022/11/05 11:14:30;;;;;;;11.23;7.87;;;;;;;10.15;79.92;100989.97;5056939;28;20208;-82
2022/11/05 11:17:16;;;;;;;10.23;7.70;;;;;;;10.16;79.75;100997.00;5055416;28;20742;-80
2022/11/05 11:19:43;;;;;;;9.47;6.43;;;;;;;10.17;80.12;100990.75;5049194;28;20209;-83
2022/11/05 11:22:19;;;;;;;8.90;6.87;;;;;;;10.18;79.68;100996.94;5056371;28;20224;-82
2022/11/05 11:24:48;;;;;;;10.03;6.73;;;;;;;10.20;79.50;101000.41;5056695;28;20246;-82
2022/11/05 11:27:19;;;;;;;8.83;6.50;;;;;;;10.20;79.28;100995.94;5055346;28;20224;-80
2022/11/05 11:29:50;;;;;;;10.03;6.33;;;;;;;10.26;78.75;101010.69;5057706;28;20578;-82
2022/11/05 11:32:19;;;;;;;10.07;5.50;;;;;;;10.25;78.08;100999.16;5056556;28;20202;-80
2022/11/05 11:34:50;;;;;;;10.37;5.27;;;;;;;10.28;78.44;101004.31;5061051;28;20201;-81
2022/11/05 11:37:21;;;;;;;6.83;4.93;;;;;;;10.26;77.41;101000.88;5060683;28;20582;-80
2022/11/05 11:39:51;;;;;;;10.47;5.40;;;;;;;10.25;77.07;101004.50;5057776;28;20899;-80
2022/11/05 11:42:22;;;;;;;7.17;4.43;;;;;;;10.26;76.28;100995.56;5063199;28;20216;-80
2022/11/05 11:44:51;;;;;;;9.67;5.60;;;;;;;10.20;75.72;101001.25;5061365;28;20687;-81
2022/11/05 11:47:21;;;;;;;8.27;5.80;;;;;;;10.18;76.13;100997.78;5059040;28;20221;-82
2022/11/05 11:49:51;;;;;;;8.77;4.93;;;;;;;10.19;75.81;101001.34;5054170;28;20685;-82
2022/11/05 11:52:24;;;;;;;8.33;5.27;;;;;;;10.19;75.69;100999.53;5058375;28;20205;-81
2022/11/05 11:54:52;;;;;;;7.33;4.90;;;;;;;10.23;75.92;101005.53;5052954;28;20723;-80
2022/11/05 11:57:23;;;;;;;9.50;5.20;;;;;;;10.25;76.18;100996.50;5056035;28;20237;-80
2022/11/05 11:59:51;;;;;;;7.80;5.87;;;;;;;10.27;76.05;100996.44;5052578;28;20201;-79
2022/11/05 12:02:49;;;;;;;6.53;5.30;;;;;;;10.33;76.14;100990.75;5055734;28;20293;-81
2022/11/05 12:05:31;;;;;;;7.03;5.30;;;;;;;10.35;75.96;100987.06;5051545;28;20205;-79
2022/11/05 12:08:04;;;;;;;7.47;4.87;;;;;;;10.34;75.23;100988.03;5058623;28;20224;-80
2022/11/05 12:10:49;;;;;;;8.83;5.53;;;;;;;10.35;75.09;100979.09;5052410;28;20212;-79